Aérodrome :
LOGIN :

S'inscrire | Disclaimer

   EN    FR    IT 

 










Légende :    VFR   VFR Marginal   IFR   IFR Intensif   IFR Très Intensif
Visi : 
Plafond : 
>= 8 km
>= 3000ft
5 à 8 km
1000 à 3000 ft
1500m à 5 km
500 à 1000 ft
800 à 1500m
200 à 500 ft
< 800m
< 200 ft
Symboles :   Orages  Brouillard  Fortes neiges  Fortes précipitations  Vent > 20 kt
SIGMETs :   Divers  Orages  Givrage  Turbulence  Onde Orograph.  Cendres Volcan.






- Altitude de l'aérodrome : 274 ft
- Code IATA : PUY


LDPL - Pula

DERNIER METAR :
  • 221930Z 09003KT 060V120 CAVOK 17/15 Q1021 NOSIG

METARs EXPIRÉS :
  • 221900Z 05004KT 030V090 CAVOK 17/15 Q1021 NOSIG
  • 221830Z VRB02KT CAVOK 16/15 Q1021 NOSIG
  • 221800Z VRB01KT CAVOK 17/16 Q1021 NOSIG
  • 221730Z VRB01KT CAVOK 16/15 Q1021 NOSIG
  • 221700Z 34001KT CAVOK 18/16 Q1021 NOSIG

TAF TAF LDPL
Valide du 22 à 18h jusqu'au 23 à 18h UTC


221725Z 2218/2318 VRB02KT CAVOK TX24/2312Z TN14/2305Z
PROB40
TEMPO 2221/2306 3000 MIFG BR
PROB30
TEMPO 2303/2309 BKN005
PROB40
TEMPO 2310/2315 12007KT



MET'MAP, la Météo Aéronautique d'un coup d'oeil ! - Copyright ORBIFLY Décembre 2007 - Disclaimer

ORBIFLY MET'MAP TEAM :

Programmation & Développement : Alexandra Zaïnal
Conception & Développement : Baudouin d'Aumeries
Co-Programmation & Développement : Marc-Olivier Méhu
Soutien technique & logistique : Manuel Goepfert

Contact : metmap@orbifly.com




SOURCES & CREDITS :

   NOAA